createdAt,value
2022-10-05T00:00:16.981Z,99574.16
2022-10-05T00:02:44.107Z,99573.22
2022-10-05T00:05:29.689Z,99563.59
2022-10-05T00:07:57.941Z,99565.38
2022-10-05T00:10:24.866Z,99573.03
2022-10-05T00:12:51.584Z,99562.78
2022-10-05T00:15:19.610Z,99583.13
2022-10-05T00:17:46.455Z,99587.34
2022-10-05T00:20:33.292Z,99575.09
2022-10-05T00:23:01.829Z,99582.13
2022-10-05T00:25:28.674Z,99582.13
2022-10-05T00:27:57.508Z,99583.59
2022-10-05T00:30:26.206Z,99574.19
2022-10-05T00:32:58.654Z,99588.66
2022-10-05T00:35:28.317Z,99581.69
2022-10-05T00:37:55.509Z,99579.91
2022-10-05T00:40:43.891Z,99589.38
2022-10-05T00:43:22.708Z,99590.19
2022-10-05T00:45:55.262Z,99588.72
2022-10-05T00:48:59.406Z,99592.69
2022-10-05T00:51:31.789Z,99591.97
2022-10-05T00:54:23.198Z,99599.69
2022-10-05T00:56:55.733Z,99612.25
2022-10-05T00:59:28.168Z,99609.50
2022-10-05T01:02:02.735Z,99612.00
2022-10-05T01:04:49.821Z,99604.03
2022-10-05T01:07:52.141Z,99615.41
2022-10-05T01:10:30.921Z,99617.06
2022-10-05T01:13:14.724Z,99618.38
2022-10-05T01:15:52.087Z,99615.06
2022-10-05T01:18:26.597Z,99630.31
2022-10-05T01:21:13.431Z,99640.84
2022-10-05T01:23:49.174Z,99631.16
2022-10-05T01:27:03.935Z,99637.38
2022-10-05T01:29:30.482Z,99639.06
2022-10-05T01:32:01.685Z,99637.63
2022-10-05T01:34:51.604Z,99653.31
2022-10-05T01:37:30.374Z,99655.88
2022-10-05T01:40:29.655Z,99662.13
2022-10-05T01:43:02.414Z,99663.25
2022-10-05T01:45:47.940Z,99667.34
2022-10-05T01:48:32.082Z,99674.34
2022-10-05T01:51:23.593Z,99672.75
2022-10-05T01:54:08.496Z,99677.16
2022-10-05T01:56:44.048Z,99669.25
2022-10-05T01:59:23.981Z,99678.28
2022-10-05T02:02:26.334Z,99670.72
2022-10-05T02:05:10.566Z,99693.13
2022-10-05T02:07:41.710Z,99689.06
2022-10-05T02:10:33.430Z,99700.50
2022-10-05T02:13:25.769Z,99703.16
2022-10-05T02:16:01.105Z,99710.88
2022-10-05T02:18:32.999Z,99714.47
2022-10-05T02:21:01.606Z,99715.59
2022-10-05T02:23:32.385Z,99728.53
2022-10-05T02:26:01.396Z,99711.69
2022-10-05T02:28:28.113Z,99736.44
2022-10-05T02:31:01.300Z,99733.03
2022-10-05T02:33:30.318Z,99734.00
2022-10-05T02:36:15.578Z,99728.72
2022-10-05T02:38:45.290Z,99735.81
2022-10-05T02:41:27.711Z,99738.59
2022-10-05T02:44:23.500Z,99742.69
2022-10-05T02:47:08.683Z,99737.63
2022-10-05T02:49:56.463Z,99746.56
2022-10-05T02:53:01.693Z,99730.94
2022-10-05T02:55:54.921Z,99732.53
2022-10-05T02:58:24.113Z,99737.81
2022-10-05T03:01:16.290Z,99738.84
2022-10-05T03:04:12.352Z,99729.38
2022-10-05T03:06:46.876Z,99749.34
2022-10-05T03:09:16.301Z,99747.50
2022-10-05T03:12:01.683Z,99745.13
2022-10-05T03:14:49.177Z,99740.72
2022-10-05T03:17:22.787Z,99749.41
2022-10-05T03:20:01.565Z,99759.91
2022-10-05T03:22:49.786Z,99769.28
2022-10-05T03:25:42.755Z,99779.22
2022-10-05T03:28:47.579Z,99787.66
2022-10-05T03:31:26.660Z,99784.16
2022-10-05T03:34:00.828Z,99759.34
2022-10-05T03:36:32.566Z,99772.44
2022-10-05T03:39:11.267Z,99781.78
2022-10-05T03:41:42.725Z,99773.44
2022-10-05T03:44:20.866Z,99792.41
2022-10-05T03:46:53.658Z,99792.34
2022-10-05T03:49:44.236Z,99785.47
2022-10-05T03:52:16.611Z,99777.50
2022-10-05T03:54:51.095Z,99761.69
2022-10-05T03:57:23.033Z,99789.53
2022-10-05T03:59:59.953Z,99783.69
2022-10-05T04:02:28.739Z,99789.06
2022-10-05T04:05:18.640Z,99794.97
2022-10-05T04:08:07.937Z,99799.38
2022-10-05T04:10:43.859Z,99801.19
2022-10-05T04:13:37.390Z,99792.66
2022-10-05T04:16:28.280Z,99809.19
2022-10-05T04:18:59.545Z,99807.25
2022-10-05T04:21:32.833Z,99794.81
2022-10-05T04:24:09.893Z,99801.06
2022-10-05T04:26:48.553Z,99810.00
2022-10-05T04:29:35.110Z,99815.31
2022-10-05T04:32:15.530Z,99810.25
2022-10-05T04:35:04.122Z,99829.28
2022-10-05T04:37:45.664Z,99825.91
2022-10-05T04:40:25.333Z,99846.56
2022-10-05T04:43:16.582Z,99833.53
2022-10-05T04:46:01.461Z,99844.63
2022-10-05T04:48:49.680Z,99851.47
2022-10-05T04:51:25.182Z,99853.16
2022-10-05T04:53:58.049Z,99855.72
2022-10-05T04:56:33.475Z,99862.66
2022-10-05T04:59:20.349Z,99865.81
2022-10-05T05:02:18.237Z,99875.03
2022-10-05T05:05:00.125Z,99874.09
2022-10-05T05:07:59.209Z,99874.72
2022-10-05T05:10:28.729Z,99873.25
2022-10-05T05:13:22.133Z,99871.59
2022-10-05T05:16:02.289Z,99893.91
2022-10-05T05:18:39.312Z,99885.19
2022-10-05T05:21:05.902Z,99889.00
2022-10-05T05:23:37.710Z,99879.25
2022-10-05T05:26:17.462Z,99880.03
2022-10-05T05:28:49.852Z,99889.03
2022-10-05T05:31:28.759Z,99879.53
2022-10-05T05:34:20.259Z,99892.31
2022-10-05T05:37:22.170Z,99876.97
2022-10-05T05:40:08.691Z,99881.97
2022-10-05T05:42:59.923Z,99878.34
2022-10-05T05:45:38.744Z,99885.06
2022-10-05T05:48:15.681Z,99888.53
2022-10-05T05:50:49.362Z,99898.25
2022-10-05T05:53:21.123Z,99891.31
2022-10-05T05:55:51.678Z,99884.47
2022-10-05T05:58:31.932Z,99907.13
2022-10-05T06:01:00.345Z,99916.97
2022-10-05T06:04:05.440Z,99918.97
2022-10-05T06:06:34.537Z,99907.94
2022-10-05T06:09:03.812Z,99909.81
2022-10-05T06:11:40.802Z,99916.78
2022-10-05T06:14:18.651Z,99913.09
2022-10-05T06:16:50.363Z,99917.06
2022-10-05T06:19:19.668Z,99922.19
2022-10-05T06:22:26.053Z,99908.78
2022-10-05T06:25:11.523Z,99922.84
2022-10-05T06:28:12.714Z,99938.72
2022-10-05T06:30:58.422Z,99938.88
2022-10-05T06:33:46.089Z,99937.66
2022-10-05T06:36:17.819Z,99947.06
2022-10-05T06:39:11.725Z,99941.16
2022-10-05T06:41:56.274Z,99950.38
2022-10-05T06:44:26.893Z,99943.28
2022-10-05T06:47:13.674Z,99948.06
2022-10-05T06:49:46.994Z,99951.81
2022-10-05T06:52:49.775Z,99929.94
2022-10-05T06:55:42.942Z,99952.28
2022-10-05T06:58:12.473Z,99948.31
2022-10-05T07:00:42.748Z,99944.38
2022-10-05T07:03:21.426Z,99932.78
2022-10-05T07:06:18.367Z,99951.81
2022-10-05T07:08:51.016Z,99968.84
2022-10-05T07:11:32.767Z,99967.19
2022-10-05T07:14:05.374Z,99959.31
2022-10-05T07:17:00.863Z,99976.47
2022-10-05T07:19:32.844Z,99977.19
2022-10-05T07:22:02.452Z,99981.53
2022-10-05T07:24:34.308Z,99977.97
2022-10-05T07:27:03.675Z,99981.59
2022-10-05T07:29:55.319Z,99992.38
2022-10-05T07:32:36.541Z,99977.19
2022-10-05T07:35:05.748Z,99987.22
2022-10-05T07:37:57.280Z,99988.78
2022-10-05T07:40:39.359Z,99996.31
2022-10-05T07:43:08.279Z,100001.22
2022-10-05T07:45:42.457Z,100001.56
2022-10-05T07:48:17.628Z,99995.66
2022-10-05T07:50:56.745Z,100011.50
2022-10-05T07:53:35.687Z,99995.50
2022-10-05T07:56:29.742Z,100008.66
2022-10-05T07:59:07.779Z,99996.41
2022-10-05T08:01:35.767Z,99992.38
2022-10-05T08:04:12.799Z,99996.06
2022-10-05T08:06:56.929Z,99992.31
2022-10-05T08:09:32.638Z,100000.81
2022-10-05T08:12:20.808Z,99998.22
2022-10-05T08:14:56.105Z,100007.59
2022-10-05T08:17:26.397Z,100003.41
2022-10-05T08:20:21.643Z,100006.19
2022-10-05T08:22:54.694Z,100005.56
2022-10-05T08:25:26.160Z,100016.69
2022-10-05T08:28:11.637Z,100017.00
2022-10-05T08:30:54.016Z,100005.94
2022-10-05T08:33:22.445Z,100009.72
2022-10-05T08:36:08.961Z,100014.59
2022-10-05T08:38:35.790Z,100007.03
2022-10-05T08:41:24.656Z,100016.06
2022-10-05T08:44:29.077Z,100015.53
2022-10-05T08:47:14.476Z,100030.03
2022-10-05T08:49:56.470Z,100032.66
2022-10-05T08:53:15.847Z,100035.56
2022-10-05T08:56:23.112Z,100042.03
2022-10-05T08:59:05.085Z,100035.53
2022-10-05T09:01:47.467Z,100059.44
2022-10-05T09:04:17.599Z,100043.75
2022-10-05T09:07:05.682Z,100050.81
2022-10-05T09:10:01.426Z,100050.38
2022-10-05T09:12:51.301Z,100056.91
2022-10-05T09:15:25.848Z,100053.75
2022-10-05T09:18:21.380Z,100047.72
2022-10-05T09:20:54.487Z,100053.13
2022-10-05T09:23:39.666Z,100042.03
2022-10-05T09:26:23.442Z,100039.50
2022-10-05T09:29:13.062Z,100044.13
2022-10-05T09:31:51.729Z,100050.84
2022-10-05T09:34:21.080Z,100054.78
2022-10-05T09:37:21.848Z,100041.97
2022-10-05T09:40:23.570Z,100050.84
2022-10-05T09:42:55.410Z,100042.38
2022-10-05T09:45:28.339Z,100042.22
2022-10-05T09:48:39.584Z,100055.19
2022-10-05T09:51:29.303Z,100059.94
2022-10-05T09:54:19.040Z,100057.81
2022-10-05T09:56:45.853Z,100063.34
2022-10-05T09:59:31.556Z,100054.94
2022-10-05T10:02:39.115Z,100047.53
2022-10-05T10:05:27.086Z,100055.69
2022-10-05T10:08:12.294Z,100049.31
2022-10-05T10:10:49.116Z,100046.69
2022-10-05T10:13:34.173Z,100054.00
2022-10-05T10:16:03.519Z,100048.16
2022-10-05T10:18:30.180Z,100070.38
2022-10-05T10:21:30.568Z,100071.59
2022-10-05T10:24:19.819Z,100064.00
2022-10-05T10:27:01.927Z,100067.16
2022-10-05T10:29:28.618Z,100075.59
2022-10-05T10:32:02.177Z,100069.91
2022-10-05T10:34:50.526Z,100073.81
2022-10-05T10:37:39.662Z,100073.09
2022-10-05T10:40:20.332Z,100068.75
2022-10-05T10:42:56.374Z,100072.63
2022-10-05T10:45:48.260Z,100082.72
2022-10-05T10:48:30.358Z,100068.59
2022-10-05T10:51:09.494Z,100072.16
2022-10-05T10:53:44.405Z,100062.44
2022-10-05T10:56:38.568Z,100064.25
2022-10-05T10:59:35.885Z,100055.84
2022-10-05T11:02:15.068Z,100072.88
2022-10-05T11:05:19.888Z,100069.56
2022-10-05T11:07:52.203Z,100072.59
2022-10-05T11:10:36.912Z,100056.03
2022-10-05T11:13:22.158Z,100051.75
2022-10-05T11:15:48.930Z,100061.44
2022-10-05T11:18:20.506Z,100046.09
2022-10-05T11:21:21.012Z,100048.22
2022-10-05T11:24:03.945Z,100054.47
2022-10-05T11:26:45.437Z,100064.50
2022-10-05T11:29:51.445Z,100051.94
2022-10-05T11:32:42.766Z,100056.16
2022-10-05T11:35:37.398Z,100051.00
2022-10-05T11:38:26.852Z,100058.91
2022-10-05T11:41:14.960Z,100048.16
2022-10-05T11:43:53.904Z,100053.81
2022-10-05T11:46:43.334Z,100054.91
2022-10-05T11:49:35.960Z,100049.72
2022-10-05T11:52:02.849Z,100053.59
2022-10-05T11:55:05.857Z,100066.81
2022-10-05T11:57:37.902Z,100073.88
2022-10-05T12:00:10.875Z,100078.38
2022-10-05T12:02:57.061Z,100067.50
2022-10-05T12:05:45.179Z,100074.25
2022-10-05T12:08:41.938Z,100065.13
2022-10-05T12:11:25.884Z,100081.41
2022-10-05T12:14:34.423Z,100084.47
2022-10-05T12:17:03.777Z,100101.13
2022-10-05T12:19:41.180Z,100087.97
2022-10-05T12:22:18.049Z,100089.94
2022-10-05T12:24:44.593Z,100103.38
2022-10-05T12:27:14.264Z,100109.88
2022-10-05T12:30:13.510Z,100106.56
2022-10-05T12:33:02.370Z,100118.16
2022-10-05T12:35:53.787Z,100114.50
2022-10-05T12:38:28.647Z,100105.94
2022-10-05T12:41:07.330Z,100132.88
2022-10-05T12:43:51.031Z,100120.94
2022-10-05T12:46:34.522Z,100117.06
2022-10-05T12:49:16.077Z,100122.94
2022-10-05T12:52:00.050Z,100098.50
2022-10-05T12:54:39.112Z,100133.59
2022-10-05T12:57:21.426Z,100119.50
2022-10-05T12:59:52.810Z,100120.81
2022-10-05T13:02:28.463Z,100128.97
2022-10-05T13:04:55.068Z,100128.06
2022-10-05T13:07:42.926Z,100125.06
2022-10-05T13:10:22.720Z,100126.63
2022-10-05T13:13:24.584Z,100120.56
2022-10-05T13:16:11.206Z,100104.50
2022-10-05T13:18:38.624Z,100119.28
2022-10-05T13:21:13.120Z,100127.03
2022-10-05T13:24:20.083Z,100122.88
2022-10-05T13:26:52.274Z,100113.75
2022-10-05T13:29:22.280Z,100124.41
2022-10-05T13:31:56.579Z,100114.63
2022-10-05T13:35:01.276Z,100122.81
2022-10-05T13:37:41.504Z,100112.84
2022-10-05T13:40:29.222Z,100111.94
2022-10-05T13:43:04.154Z,100113.91
2022-10-05T13:45:51.223Z,100119.88
2022-10-05T13:48:55.057Z,100124.13
2022-10-05T13:51:42.728Z,100127.38
2022-10-05T13:55:03.961Z,100137.41
2022-10-05T13:57:55.274Z,100136.66
2022-10-05T14:00:26.527Z,100142.13
2022-10-05T14:02:56.636Z,100154.72
2022-10-05T14:05:28.935Z,100139.91
2022-10-05T14:08:00.337Z,100139.41
2022-10-05T14:10:45.050Z,100129.78
2022-10-05T14:13:47.034Z,100137.41
2022-10-05T14:16:13.875Z,100127.56
2022-10-05T14:19:01.884Z,100127.50
2022-10-05T14:21:33.236Z,100119.75
2022-10-05T14:24:45.307Z,100130.28
2022-10-05T14:27:51.724Z,100138.66
2022-10-05T14:30:23.307Z,100134.22
2022-10-05T14:32:57.202Z,100129.78
2022-10-05T14:35:25.981Z,100134.63
2022-10-05T14:37:57.174Z,100128.44
2022-10-05T14:40:28.326Z,100127.53
2022-10-05T14:42:55.269Z,100125.81
2022-10-05T14:45:29.946Z,100100.00
2022-10-05T14:48:09.760Z,100128.41
2022-10-05T14:50:56.556Z,100137.50
2022-10-05T14:53:27.991Z,100124.94
2022-10-05T14:56:06.805Z,100129.31
2022-10-05T14:59:14.248Z,100141.88
2022-10-05T15:01:48.443Z,100131.63
2022-10-05T15:04:31.024Z,100139.56
2022-10-05T15:07:32.361Z,100144.63
2022-10-05T15:10:26.975Z,100142.59
2022-10-05T15:13:35.367Z,100125.50
2022-10-05T15:16:10.764Z,100136.63
2022-10-05T15:18:54.088Z,100145.88
2022-10-05T15:21:23.997Z,100142.47
2022-10-05T15:23:58.034Z,100138.88
2022-10-05T15:26:43.669Z,100144.31
2022-10-05T15:29:10.574Z,100139.97
2022-10-05T15:31:50.627Z,100134.06
2022-10-05T15:34:29.520Z,100144.63
2022-10-05T15:37:25.471Z,100162.22
2022-10-05T15:39:58.296Z,100155.25
2022-10-05T15:42:45.286Z,100163.53
2022-10-05T15:45:45.363Z,100148.44
2022-10-05T15:48:39.291Z,100161.28
2022-10-05T15:51:15.420Z,100153.63
2022-10-05T15:54:20.405Z,100158.19
2022-10-05T15:57:07.306Z,100163.44
2022-10-05T16:00:04.355Z,100168.56
2022-10-05T16:02:40.680Z,100176.72
2022-10-05T16:05:12.796Z,100167.94
2022-10-05T16:08:02.257Z,100158.56
2022-10-05T16:10:32.577Z,100166.50
2022-10-05T16:13:28.796Z,100175.94
2022-10-05T16:16:12.058Z,100167.28
2022-10-05T16:18:38.695Z,100177.78
2022-10-05T16:21:21.615Z,100174.56
2022-10-05T16:23:54.301Z,100167.53
2022-10-05T16:26:42.766Z,100168.56
2022-10-05T16:29:27.825Z,100168.94
2022-10-05T16:31:59.708Z,100183.81
2022-10-05T16:34:50.042Z,100165.78
2022-10-05T16:37:38.123Z,100176.16
2022-10-05T16:40:38.873Z,100169.50
2022-10-05T16:43:29.087Z,100161.78
2022-10-05T16:45:58.476Z,100173.88
2022-10-05T16:49:04.332Z,100175.97
2022-10-05T16:51:59.217Z,100180.31
2022-10-05T16:54:31.759Z,100177.19
2022-10-05T16:57:02.939Z,100181.47
2022-10-05T17:00:04.134Z,100182.47
2022-10-05T17:02:48.113Z,100179.00
2022-10-05T17:05:21.143Z,100181.56
2022-10-05T17:08:09.539Z,100177.47
2022-10-05T17:11:01.150Z,100178.44
2022-10-05T17:13:58.818Z,100190.63
2022-10-05T17:16:54.675Z,100189.78
2022-10-05T17:19:58.936Z,100191.50
2022-10-05T17:22:29.455Z,100202.94
2022-10-05T17:25:08.745Z,100196.97
2022-10-05T17:28:11.112Z,100204.44
2022-10-05T17:31:13.029Z,100196.69
2022-10-05T17:34:07.450Z,100206.88
2022-10-05T17:36:49.966Z,100196.34
2022-10-05T17:39:21.565Z,100187.63
2022-10-05T17:41:48.285Z,100198.69
2022-10-05T17:44:19.526Z,100193.41
2022-10-05T17:46:49.730Z,100195.81
2022-10-05T17:49:39.042Z,100196.19
2022-10-05T17:52:40.551Z,100189.78
2022-10-05T17:55:25.904Z,100190.28
2022-10-05T17:57:53.213Z,100179.53
2022-10-05T18:00:25.812Z,100181.00
2022-10-05T18:02:55.931Z,100156.59
2022-10-05T18:05:31.717Z,100178.06
2022-10-05T18:08:13.877Z,100175.78
2022-10-05T18:11:05.123Z,100166.25
2022-10-05T18:13:37.756Z,100155.72
2022-10-05T18:16:04.825Z,100152.56
2022-10-05T18:18:45.294Z,100158.09
2022-10-05T18:21:14.872Z,100154.13
2022-10-05T18:23:47.916Z,100130.97
2022-10-05T18:26:33.412Z,100165.91
2022-10-05T18:29:43.369Z,100161.16
2022-10-05T18:32:39.399Z,100160.84
2022-10-05T18:35:08.689Z,100172.59
2022-10-05T18:37:38.140Z,100166.94
2022-10-05T18:40:16.843Z,100168.06
2022-10-05T18:42:55.636Z,100164.19
2022-10-05T18:45:42.110Z,100153.44
2022-10-05T18:48:31.981Z,100173.81
2022-10-05T18:51:24.558Z,100167.09
2022-10-05T18:54:09.454Z,100162.09
2022-10-05T18:56:38.974Z,100156.06
2022-10-05T18:59:05.648Z,100158.00
2022-10-05T19:02:13.480Z,100139.16
2022-10-05T19:05:29.322Z,100155.97
2022-10-05T19:08:12.706Z,100159.25
2022-10-05T19:10:55.305Z,100149.66
2022-10-05T19:13:26.277Z,100163.06
2022-10-05T19:16:03.206Z,100164.91
2022-10-05T19:19:00.044Z,100159.59
2022-10-05T19:21:39.500Z,100162.34
2022-10-05T19:24:18.245Z,100167.66
2022-10-05T19:26:56.651Z,100168.78
2022-10-05T19:29:23.474Z,100169.97
2022-10-05T19:31:54.806Z,100169.91
2022-10-05T19:34:27.573Z,100169.97
2022-10-05T19:37:08.611Z,100169.09
2022-10-05T19:39:41.212Z,100180.22
2022-10-05T19:42:22.848Z,100194.44
2022-10-05T19:45:02.783Z,100187.53
2022-10-05T19:47:54.649Z,100201.53
2022-10-05T19:50:31.551Z,100193.72
2022-10-05T19:53:25.078Z,100186.69
2022-10-05T19:55:54.242Z,100189.50
2022-10-05T19:58:27.160Z,100197.06
2022-10-05T20:00:59.769Z,100202.06
2022-10-05T20:03:29.520Z,100188.00
2022-10-05T20:06:01.182Z,100189.25
2022-10-05T20:08:36.851Z,100178.69
2022-10-05T20:11:21.038Z,100178.63
2022-10-05T20:14:09.540Z,100176.19
2022-10-05T20:16:55.028Z,100173.53
2022-10-05T20:19:52.385Z,100167.13
2022-10-05T20:22:32.813Z,100160.66
2022-10-05T20:25:06.338Z,100161.44
2022-10-05T20:27:56.673Z,100153.63
2022-10-05T20:30:28.166Z,100151.06
2022-10-05T20:33:01.608Z,100157.34
2022-10-05T20:35:32.191Z,100163.56
2022-10-05T20:38:00.204Z,100156.56
2022-10-05T20:40:29.199Z,100154.09
2022-10-05T20:42:56.947Z,100146.66
2022-10-05T20:45:23.725Z,100158.66
2022-10-05T20:47:50.812Z,100164.75
2022-10-05T20:50:17.663Z,100163.00
2022-10-05T20:52:44.505Z,100168.94
2022-10-05T20:55:11.843Z,100164.75
2022-10-05T20:57:42.146Z,100150.84
2022-10-05T21:00:10.824Z,100173.47
2022-10-05T21:02:38.147Z,100168.22
2022-10-05T21:05:05.365Z,100169.00
2022-10-05T21:07:34.345Z,100165.34
2022-10-05T21:10:02.408Z,100161.91
2022-10-05T21:12:29.131Z,100152.84
2022-10-05T21:14:55.830Z,100159.69
2022-10-05T21:17:30.834Z,100155.53
2022-10-05T21:19:57.607Z,100145.66
2022-10-05T21:22:25.199Z,100172.53
2022-10-05T21:24:51.783Z,100164.94
2022-10-05T21:27:18.402Z,100147.78
2022-10-05T21:29:45.461Z,100174.59
2022-10-05T21:32:20.426Z,100167.56
2022-10-05T21:34:59.471Z,100173.94
2022-10-05T21:37:26.050Z,100166.06
2022-10-05T21:39:59.273Z,100163.69
2022-10-05T21:42:26.496Z,100170.81
2022-10-05T21:44:53.158Z,100169.91
2022-10-05T21:47:19.802Z,100174.91
2022-10-05T21:49:46.589Z,100171.03
2022-10-05T21:52:13.297Z,100164.78
2022-10-05T21:54:42.326Z,100180.91
2022-10-05T21:57:11.350Z,100168.69
2022-10-05T21:59:38.162Z,100175.53
2022-10-05T22:02:05.035Z,100160.59
2022-10-05T22:04:31.777Z,100149.94
2022-10-05T22:06:58.762Z,100152.34
2022-10-05T22:09:25.538Z,100139.34
2022-10-05T22:11:52.282Z,100136.53
2022-10-05T22:14:19.012Z,100120.63
2022-10-05T22:16:45.992Z,100103.59
2022-10-05T22:19:18.909Z,100127.59
2022-10-05T22:21:45.533Z,100133.00
2022-10-05T22:24:12.185Z,100131.25
2022-10-05T22:26:40.427Z,100140.56
2022-10-05T22:29:07.364Z,100143.13
2022-10-05T22:31:34.217Z,100143.94
2022-10-05T22:34:01.029Z,100142.34
2022-10-05T22:36:27.774Z,100132.03
2022-10-05T22:38:54.543Z,100133.00
2022-10-05T22:41:21.394Z,100132.88
2022-10-05T22:43:50.252Z,100128.69
2022-10-05T22:46:17.791Z,100113.31
2022-10-05T22:48:44.482Z,100123.22
2022-10-05T22:51:11.168Z,100125.19
2022-10-05T22:53:37.949Z,100114.34
2022-10-05T22:56:08.744Z,100118.66
2022-10-05T22:58:36.221Z,100113.25
2022-10-05T23:01:08.310Z,100109.69
2022-10-05T23:03:35.365Z,100107.66
2022-10-05T23:06:04.840Z,100111.31
2022-10-05T23:08:33.257Z,100113.81
2022-10-05T23:11:02.228Z,100105.41
2022-10-05T23:13:30.697Z,100104.50
2022-10-05T23:15:57.608Z,100100.84
2022-10-05T23:18:24.373Z,100101.44
2022-10-05T23:20:55.229Z,100082.84
2022-10-05T23:23:23.189Z,100098.84
2022-10-05T23:25:50.240Z,100106.13
2022-10-05T23:28:17.031Z,100104.09
2022-10-05T23:30:43.867Z,100114.03
2022-10-05T23:33:10.615Z,100112.38
2022-10-05T23:35:37.230Z,100107.97
2022-10-05T23:38:03.978Z,100103.53
2022-10-05T23:40:30.682Z,100107.84
2022-10-05T23:42:57.393Z,100113.22
2022-10-05T23:45:24.150Z,100105.75
2022-10-05T23:47:50.790Z,100103.56
2022-10-05T23:50:17.588Z,100107.31
2022-10-05T23:52:44.206Z,100108.63
2022-10-05T23:55:10.839Z,100114.88
2022-10-05T23:57:38.398Z,100101.41
